Time;durP1;ratioP1;P1;durP2;ratioP2;P2;SDS_P1;SDS_P2;PMS_P1;PMS_P2;Temp;Humidity;BMP_temperature;BMP_pressure;BME280_temperature;BME280_humidity;BME280_pressure;Samples;Min_cycle;Max_cycle;Signal;HPM_P1;HPM_P2
2022/08/28 00:01:26;;;;;;;5.33;3.90;;;;;;;;;;5100603;28;20205;-62
2022/08/28 00:03:54;;;;;;;6.47;4.20;;;;;;;;;;5100015;28;20221;-62
2022/08/28 00:06:24;;;;;;;4.67;4.27;;;;;;;;;;5100162;28;20796;-62
2022/08/28 00:08:51;;;;;;;5.67;4.30;;;;;;;;;;5100552;28;20262;-62
2022/08/28 00:11:20;;;;;;;8.03;4.30;;;;;;;;;;5100384;28;20205;-62
2022/08/28 00:13:48;;;;;;;5.73;4.40;;;;;;;;;;5100259;28;20254;-62
2022/08/28 00:16:17;;;;;;;4.50;4.10;;;;;;;;;;5103765;28;20267;-62
2022/08/28 00:18:45;;;;;;;4.70;4.17;;;;;;;;;;5120202;28;20206;-62
2022/08/28 00:21:14;;;;;;;4.40;4.00;;;;;;;;;;5120717;28;20206;-62
2022/08/28 00:23:43;;;;;;;4.03;3.53;;;;;;;;;;5119985;28;20333;-62
2022/08/28 00:27:51;;;;;;;4.50;3.90;;;;;;;;;;5100020;28;20234;-62
2022/08/28 00:28:59;;;;;;;5.10;4.63;;;;;;;;;;5099835;28;20202;-62
2022/08/28 00:31:27;;;;;;;4.50;4.10;;;;;;;;;;5100106;28;20210;-62
2022/08/28 00:33:55;;;;;;;7.03;4.43;;;;;;;;;;5099626;28;20237;-62
2022/08/28 00:36:23;;;;;;;4.60;4.20;;;;;;;;;;5100019;28;20287;-62
2022/08/28 00:38:53;;;;;;;4.50;4.10;;;;;;;;;;5099587;28;20685;-62
2022/08/28 00:41:22;;;;;;;4.53;4.13;;;;;;;;;;5099493;28;20240;-62
2022/08/28 00:44:06;;;;;;;4.87;4.37;;;;;;;;;;5099763;28;20221;-62
2022/08/28 00:46:34;;;;;;;6.53;4.03;;;;;;;;;;5098832;28;20265;-62
2022/08/28 00:49:02;;;;;;;5.63;3.90;;;;;;;;;;5099511;28;20564;-62
2022/08/28 00:54:18;;;;;;;6.43;4.50;;;;;;;;;;5099533;28;20229;-62
2022/08/28 00:56:46;;;;;;;6.17;3.87;;;;;;;;;;5099456;28;20212;-62
2022/08/28 00:59:17;;;;;;;4.57;3.87;;;;;;;;;;5099604;28;20236;-62
2022/08/28 01:01:45;;;;;;;4.40;4.07;;;;;;;;;;5099184;28;20233;-62
2022/08/28 01:04:14;;;;;;;4.87;4.00;;;;;;;;;;5099091;28;20235;-62
2022/08/28 01:06:43;;;;;;;6.80;4.40;;;;;;;;;;5106460;28;20274;-62
2022/08/28 01:09:11;;;;;;;5.87;4.23;;;;;;;;;;5119508;28;20207;-62
2022/08/28 01:11:42;;;;;;;7.77;4.27;;;;;;;;;;5119598;28;20303;-62
2022/08/28 01:14:12;;;;;;;5.80;4.10;;;;;;;;;;5119268;27;20235;-62
2022/08/28 01:16:41;;;;;;;5.10;4.60;;;;;;;;;;5119555;28;20231;-62
2022/08/28 01:19:13;;;;;;;4.67;3.90;;;;;;;;;;5102570;28;20234;-62
2022/08/28 01:21:47;;;;;;;6.03;4.60;;;;;;;;;;5099133;28;20236;-62
2022/08/28 01:24:17;;;;;;;5.53;4.40;;;;;;;;;;5112505;28;20262;-62
2022/08/28 01:26:46;;;;;;;6.00;4.13;;;;;;;;;;5119252;28;20289;-62
2022/08/28 01:29:14;;;;;;;5.00;4.30;;;;;;;;;;5119316;27;20212;-62
2022/08/28 01:31:42;;;;;;;5.20;3.93;;;;;;;;;;5119226;28;20205;-62
2022/08/28 01:34:11;;;;;;;3.97;3.67;;;;;;;;;;5118727;28;20732;-62
2022/08/28 01:36:39;;;;;;;4.83;4.23;;;;;;;;;;5119177;28;20240;-62
2022/08/28 01:39:08;;;;;;;4.43;3.90;;;;;;;;;;5119203;28;20244;-62
2022/08/28 01:41:40;;;;;;;6.30;4.03;;;;;;;;;;5118977;28;20201;-62
2022/08/28 01:44:08;;;;;;;5.00;3.60;;;;;;;;;;5118800;28;20703;-62
2022/08/28 01:46:36;;;;;;;4.17;3.77;;;;;;;;;;5118962;28;20267;-62
2022/08/28 01:49:06;;;;;;;4.40;4.00;;;;;;;;;;5118750;28;20208;-62
2022/08/28 01:51:34;;;;;;;5.70;3.77;;;;;;;;;;5118799;28;20279;-62
2022/08/28 01:54:05;;;;;;;4.90;3.90;;;;;;;;;;5118832;28;20232;-62
2022/08/28 01:56:33;;;;;;;4.37;3.50;;;;;;;;;;5118313;28;20570;-62
2022/08/28 01:59:04;;;;;;;3.87;3.40;;;;;;;;;;5118642;28;20618;-62
2022/08/28 02:01:33;;;;;;;7.37;3.27;;;;;;;;;;5118829;28;20245;-62
2022/08/28 02:04:03;;;;;;;3.77;3.47;;;;;;;;;;5118497;28;20231;-62
2022/08/28 02:06:31;;;;;;;3.53;3.23;;;;;;;;;;5118600;28;20234;-62
2022/08/28 02:08:59;;;;;;;4.00;3.33;;;;;;;;;;5118709;28;20236;-62
2022/08/28 02:11:28;;;;;;;4.17;3.77;;;;;;;;;;5118330;28;20207;-62
2022/08/28 02:13:56;;;;;;;3.83;3.47;;;;;;;;;;5118261;28;20685;-62
2022/08/28 02:16:27;;;;;;;4.23;3.50;;;;;;;;;;5118054;27;20195;-61
2022/08/28 02:18:55;;;;;;;3.40;3.10;;;;;;;;;;5103330;28;20247;-62
2022/08/28 02:21:24;;;;;;;4.90;3.70;;;;;;;;;;5098155;28;20203;-62
2022/08/28 02:23:52;;;;;;;4.50;3.43;;;;;;;;;;5108063;28;20222;-62
2022/08/28 02:26:20;;;;;;;6.27;3.87;;;;;;;;;;5118079;28;20265;-62
2022/08/28 02:28:48;;;;;;;3.80;3.20;;;;;;;;;;5118206;28;20238;-61
2022/08/28 02:31:16;;;;;;;4.07;3.40;;;;;;;;;;5117960;28;20238;-62
2022/08/28 02:33:46;;;;;;;3.43;3.13;;;;;;;;;;5117824;28;20294;-62
2022/08/28 02:36:15;;;;;;;4.80;3.80;;;;;;;;;;5118013;28;20232;-62
2022/08/28 02:38:44;;;;;;;4.90;3.67;;;;;;;;;;5118184;28;20202;-62
2022/08/28 02:41:12;;;;;;;3.37;3.07;;;;;;;;;;5117924;28;20279;-62
2022/08/28 02:43:40;;;;;;;3.50;3.20;;;;;;;;;;5117790;28;20653;-62
2022/08/28 02:46:08;;;;;;;3.70;3.23;;;;;;;;;;5118224;28;20205;-62
2022/08/28 02:48:37;;;;;;;5.50;3.27;;;;;;;;;;5117936;28;20209;-61
2022/08/28 02:51:08;;;;;;;3.37;3.07;;;;;;;;;;5117796;28;20233;-62
2022/08/28 02:53:36;;;;;;;4.40;3.00;;;;;;;;;;5118023;28;20265;-61
2022/08/28 02:56:05;;;;;;;3.80;3.40;;;;;;;;;;5117850;28;20655;-62
2022/08/28 02:58:33;;;;;;;5.43;3.43;;;;;;;;;;5117903;28;20733;-61
2022/08/28 03:01:02;;;;;;;4.00;3.20;;;;;;;;;;5117922;28;20210;-62
2022/08/28 03:03:31;;;;;;;3.70;3.23;;;;;;;;;;5117615;28;20312;-62
2022/08/28 03:05:59;;;;;;;3.97;2.97;;;;;;;;;;5118011;28;20255;-62
2022/08/28 03:08:30;;;;;;;4.50;3.70;;;;;;;;;;5119211;28;20263;-61
2022/08/28 03:10:58;;;;;;;3.97;3.60;;;;;;;;;;5121870;28;20201;-62
2022/08/28 03:13:26;;;;;;;4.37;3.07;;;;;;;;;;5121288;28;20230;-62
2022/08/28 03:15:54;;;;;;;3.83;3.50;;;;;;;;;;5119271;28;20679;-62
2022/08/28 03:18:23;;;;;;;4.30;3.20;;;;;;;;;;5121258;28;20207;-62
2022/08/28 03:20:52;;;;;;;3.43;3.13;;;;;;;;;;5121761;28;20199;-62
2022/08/28 03:23:26;;;;;;;3.93;3.53;;;;;;;;;;5121253;28;20228;-62
2022/08/28 03:25:57;;;;;;;3.67;3.37;;;;;;;;;;5120265;28;20671;-62
2022/08/28 03:28:25;;;;;;;5.80;3.37;;;;;;;;;;5121581;28;20223;-62
2022/08/28 03:30:54;;;;;;;4.00;3.30;;;;;;;;;;5121368;28;20230;-62
2022/08/28 03:33:22;;;;;;;3.80;3.47;;;;;;;;;;5121142;28;20221;-62
2022/08/28 03:35:50;;;;;;;3.13;2.83;;;;;;;;;;5121443;27;20212;-62
2022/08/28 03:38:18;;;;;;;3.10;2.80;;;;;;;;;;5121075;28;20198;-62
2022/08/28 03:40:47;;;;;;;3.70;2.97;;;;;;;;;;5120999;28;20652;-62
2022/08/28 03:43:17;;;;;;;4.03;3.37;;;;;;;;;;5120977;28;20230;-62
2022/08/28 03:45:51;;;;;;;3.50;3.20;;;;;;;;;;5121435;28;20240;-62
2022/08/28 03:48:20;;;;;;;3.50;3.00;;;;;;;;;;5120999;28;20235;-62
2022/08/28 03:50:47;;;;;;;4.47;3.53;;;;;;;;;;5121363;28;20201;-62
2022/08/28 03:53:18;;;;;;;4.13;3.33;;;;;;;;;;5120756;28;20771;-62
2022/08/28 03:55:46;;;;;;;4.27;3.33;;;;;;;;;;5121187;28;20248;-62
2022/08/28 03:58:16;;;;;;;5.23;3.50;;;;;;;;;;5121122;28;20236;-62
2022/08/28 04:00:46;;;;;;;4.37;3.47;;;;;;;;;;5121117;28;20254;-61
2022/08/28 04:03:14;;;;;;;3.70;3.40;;;;;;;;;;5120432;28;20270;-62
2022/08/28 04:05:43;;;;;;;7.50;3.63;;;;;;;;;;5121009;28;20242;-61
2022/08/28 04:08:14;;;;;;;5.30;3.17;;;;;;;;;;5120927;28;20259;-61
2022/08/28 04:10:42;;;;;;;4.17;3.23;;;;;;;;;;5120526;28;20633;-62
2022/08/28 04:13:11;;;;;;;5.63;3.60;;;;;;;;;;5120820;28;20224;-62
2022/08/28 04:15:40;;;;;;;4.20;3.70;;;;;;;;;;5120411;28;20233;-62
2022/08/28 04:18:08;;;;;;;6.03;3.80;;;;;;;;;;5112170;28;20705;-62
2022/08/28 04:20:37;;;;;;;5.73;3.83;;;;;;;;;;5098809;28;20235;-62
2022/08/28 04:23:08;;;;;;;3.83;3.43;;;;;;;;;;5103845;28;20209;-61
2022/08/28 04:25:39;;;;;;;3.40;3.10;;;;;;;;;;5120360;28;20681;-62
2022/08/28 04:28:07;;;;;;;5.53;3.60;;;;;;;;;;5120450;28;20226;-61
2022/08/28 04:30:35;;;;;;;5.77;3.27;;;;;;;;;;5120476;28;20208;-62
2022/08/28 04:33:05;;;;;;;6.77;3.70;;;;;;;;;;5120134;28;20234;-62
2022/08/28 04:35:33;;;;;;;4.00;3.60;;;;;;;;;;5120314;28;20218;-61
2022/08/28 04:38:01;;;;;;;4.90;3.60;;;;;;;;;;5120122;28;20635;-61
2022/08/28 04:40:32;;;;;;;5.30;3.40;;;;;;;;;;5120221;28;20291;-61
2022/08/28 04:43:00;;;;;;;3.70;3.40;;;;;;;;;;5120189;28;20237;-61
2022/08/28 04:45:28;;;;;;;4.40;3.57;;;;;;;;;;5120218;27;20234;-62
2022/08/28 04:47:56;;;;;;;4.77;3.50;;;;;;;;;;5119814;28;20232;-62
2022/08/28 04:50:28;;;;;;;3.87;3.20;;;;;;;;;;5120306;28;20221;-61
2022/08/28 04:52:57;;;;;;;3.50;3.20;;;;;;;;;;5119546;27;20246;-61
2022/08/28 04:55:25;;;;;;;4.00;3.60;;;;;;;;;;5119809;28;20658;-61
2022/08/28 04:58:13;;;;;;;4.93;3.80;;;;;;;;;;5119613;28;20228;-61
2022/08/28 05:00:42;;;;;;;4.40;3.63;;;;;;;;;;5119674;27;20727;-62
2022/08/28 05:03:10;;;;;;;5.30;3.47;;;;;;;;;;5119454;28;20233;-61
2022/08/28 05:05:43;;;;;;;4.23;3.77;;;;;;;;;;5119770;28;20230;-62
2022/08/28 05:08:11;;;;;;;4.70;3.77;;;;;;;;;;5119374;28;20264;-62
2022/08/28 05:10:40;;;;;;;5.27;3.97;;;;;;;;;;5119326;28;20695;-61
2022/08/28 05:13:08;;;;;;;5.27;3.80;;;;;;;;;;5119293;28;20644;-61
2022/08/28 05:15:38;;;;;;;5.07;3.20;;;;;;;;;;5119292;28;20259;-61
2022/08/28 05:18:06;;;;;;;6.70;4.17;;;;;;;;;;5111685;28;20225;-61
2022/08/28 05:20:35;;;;;;;4.20;3.73;;;;;;;;;;5099107;28;20215;-61
2022/08/28 05:23:06;;;;;;;6.13;3.87;;;;;;;;;;5102232;28;20209;-62
2022/08/28 05:25:34;;;;;;;4.47;4.07;;;;;;;;;;5119246;28;20227;-61
2022/08/28 05:28:04;;;;;;;5.27;3.47;;;;;;;;;;5119050;28;20309;-62
2022/08/28 05:30:37;;;;;;;8.37;4.00;;;;;;;;;;5119037;28;20206;-62
2022/08/28 05:33:05;;;;;;;6.77;3.80;;;;;;;;;;5118576;28;20231;-61
2022/08/28 05:35:34;;;;;;;4.10;3.70;;;;;;;;;;5118896;28;20217;-62
2022/08/28 05:38:02;;;;;;;3.47;3.17;;;;;;;;;;5119288;28;20212;-61
2022/08/28 05:40:31;;;;;;;4.50;3.67;;;;;;;;;;5118664;28;20680;-62
2022/08/28 05:42:59;;;;;;;3.70;3.40;;;;;;;;;;5118746;28;20570;-62
2022/08/28 05:45:27;;;;;;;4.13;3.47;;;;;;;;;;5119138;28;20283;-61
2022/08/28 05:47:56;;;;;;;3.70;3.30;;;;;;;;;;5118702;28;20205;-61
2022/08/28 05:50:24;;;;;;;5.13;3.70;;;;;;;;;;5118963;28;20211;-61
2022/08/28 05:52:52;;;;;;;5.67;4.00;;;;;;;;;;5118400;28;20715;-61
2022/08/28 05:55:20;;;;;;;5.73;4.30;;;;;;;;;;5118798;28;20236;-61
2022/08/28 05:57:49;;;;;;;5.47;3.60;;;;;;;;;;5118821;28;20236;-62
2022/08/28 06:00:17;;;;;;;4.87;3.97;;;;;;;;;;5118588;28;20660;-62
2022/08/28 06:02:45;;;;;;;4.70;3.80;;;;;;;;;;5118435;28;20243;-62
2022/08/28 06:05:13;;;;;;;4.27;3.70;;;;;;;;;;5118765;28;20279;-62
2022/08/28 06:07:41;;;;;;;5.20;4.30;;;;;;;;;;5118635;28;20237;-62
2022/08/28 06:10:09;;;;;;;4.63;4.13;;;;;;;;;;5118709;28;20260;-61
2022/08/28 06:12:37;;;;;;;4.97;4.07;;;;;;;;;;5118346;28;20651;-62
2022/08/28 06:15:09;;;;;;;8.27;4.43;;;;;;;;;;5118606;28;20240;-62
2022/08/28 06:17:37;;;;;;;6.60;4.37;;;;;;;;;;5114383;28;20236;-62
2022/08/28 06:20:06;;;;;;;4.10;3.70;;;;;;;;;;5097922;28;20231;-61
2022/08/28 06:22:34;;;;;;;4.33;3.93;;;;;;;;;;5097773;28;20213;-62
2022/08/28 06:25:02;;;;;;;9.97;4.17;;;;;;;;;;5117839;28;20322;-62
2022/08/28 06:27:35;;;;;;;7.67;4.23;;;;;;;;;;5118017;28;20253;-62
2022/08/28 06:30:03;;;;;;;4.93;4.03;;;;;;;;;;5118155;28;20299;-61
2022/08/28 06:32:33;;;;;;;4.93;3.73;;;;;;;;;;5118115;28;20207;-61
2022/08/28 06:35:01;;;;;;;4.50;4.10;;;;;;;;;;5118168;28;20299;-61
2022/08/28 06:37:29;;;;;;;4.90;4.33;;;;;;;;;;5118312;28;20296;-61
2022/08/28 06:39:57;;;;;;;5.07;4.47;;;;;;;;;;5118212;28;20236;-61
2022/08/28 06:42:27;;;;;;;4.63;4.13;;;;;;;;;;5118097;28;20205;-62
2022/08/28 06:44:55;;;;;;;6.40;4.23;;;;;;;;;;5121650;28;20255;-61
2022/08/28 06:47:22;;;;;;;8.97;4.33;;;;;;;;;;5122179;28;20674;-61
2022/08/28 06:49:53;;;;;;;6.33;4.37;;;;;;;;;;5121796;28;20282;-61
2022/08/28 06:52:21;;;;;;;6.67;4.50;;;;;;;;;;5122089;28;20239;-61
2022/08/28 06:54:50;;;;;;;7.10;4.97;;;;;;;;;;5122287;28;20237;-61
2022/08/28 06:57:22;;;;;;;8.30;5.00;;;;;;;;;;5122008;28;20233;-61
2022/08/28 06:59:50;;;;;;;6.90;4.73;;;;;;;;;;5121940;28;20254;-61
2022/08/28 07:02:18;;;;;;;6.60;5.17;;;;;;;;;;5121895;28;20236;-61
2022/08/28 07:04:52;;;;;;;6.80;5.10;;;;;;;;;;5121723;28;20240;-61
2022/08/28 07:07:20;;;;;;;7.03;5.67;;;;;;;;;;5122070;27;20235;-61
2022/08/28 07:09:59;;;;;;;5.70;5.10;;;;;;;;;;5121725;28;20313;-61
2022/08/28 07:12:27;;;;;;;7.73;5.90;;;;;;;;;;5121542;28;20232;-61
2022/08/28 07:14:55;;;;;;;8.20;6.37;;;;;;;;;;5119233;28;20275;-62
2022/08/28 07:17:23;;;;;;;7.80;6.03;;;;;;;;;;5116351;28;20614;-61
2022/08/28 07:19:52;;;;;;;9.77;6.10;;;;;;;;;;5100397;28;20685;-61
2022/08/28 07:22:20;;;;;;;8.97;5.80;;;;;;;;;;5101430;28;20239;-61
2022/08/28 07:24:48;;;;;;;6.67;5.93;;;;;;;;;;5118675;28;20263;-61
2022/08/28 07:27:16;;;;;;;9.20;6.90;;;;;;;;;;5121535;28;20305;-61
2022/08/28 07:29:45;;;;;;;9.03;6.03;;;;;;;;;;5121347;28;20327;-61
2022/08/28 07:32:14;;;;;;;9.50;6.27;;;;;;;;;;5121265;28;20259;-61
2022/08/28 07:34:42;;;;;;;9.93;6.60;;;;;;;;;;5121105;28;20269;-61
2022/08/28 07:37:11;;;;;;;11.20;6.57;;;;;;;;;;5121008;28;20251;-61
2022/08/28 07:39:42;;;;;;;7.33;5.87;;;;;;;;;;5120974;28;20282;-61
2022/08/28 07:44:47;;;;;;;7.77;6.87;;;;;;;;;;5120894;28;20206;-62
2022/08/28 07:45:01;;;;;;;9.13;6.60;;;;;;;;;;5120817;28;20226;-61
2022/08/28 07:47:30;;;;;;;9.57;6.50;;;;;;;;;;5118852;28;20225;-61
2022/08/28 07:50:00;;;;;;;9.23;6.87;;;;;;;;;;5119042;28;20269;-61
2022/08/28 07:52:29;;;;;;;8.00;7.10;;;;;;;;;;5119011;27;20238;-61
2022/08/28 07:54:58;;;;;;;8.60;6.00;;;;;;;;;;5118523;28;20818;-61
2022/08/28 07:57:26;;;;;;;7.93;6.90;;;;;;;;;;5118732;28;20234;-61
2022/08/28 07:59:54;;;;;;;6.83;5.73;;;;;;;;;;5119419;28;20201;-62
2022/08/28 08:02:21;;;;;;;8.23;6.67;;;;;;;;;;5120935;28;20245;-61
2022/08/28 08:04:49;;;;;;;9.50;6.63;;;;;;;;;;5120667;28;20237;-61
2022/08/28 08:07:18;;;;;;;10.00;6.93;;;;;;;;;;5120551;28;20245;-61
2022/08/28 08:09:48;;;;;;;7.73;6.93;;;;;;;;;;5120481;28;20787;-61
2022/08/28 08:12:16;;;;;;;9.47;7.50;;;;;;;;;;5120378;28;20349;-61
2022/08/28 08:14:44;;;;;;;11.30;7.93;;;;;;;;;;5120448;28;20267;-61
2022/08/28 08:17:13;;;;;;;7.43;6.37;;;;;;;;;;5120229;28;20229;-61
2022/08/28 08:19:40;;;;;;;8.80;6.90;;;;;;;;;;5099705;28;20287;-62
2022/08/28 08:22:08;;;;;;;8.80;6.97;;;;;;;;;;5099998;28;20680;-62
2022/08/28 08:24:36;;;;;;;7.33;6.43;;;;;;;;;;5116422;28;20705;-62
2022/08/28 08:27:06;;;;;;;10.37;8.50;;;;;;;;;;5120430;27;20231;-62
2022/08/28 08:29:35;;;;;;;7.80;6.87;;;;;;;;;;5120130;28;20584;-63
2022/08/28 08:32:05;;;;;;;10.63;7.10;;;;;;;;;;5120331;28;20261;-63
2022/08/28 08:34:35;;;;;;;10.73;7.47;;;;;;;;;;5120082;28;20227;-63
2022/08/28 08:37:04;;;;;;;8.13;7.30;;;;;;;;;;5120269;28;20211;-62
2022/08/28 08:39:32;;;;;;;9.70;6.70;;;;;;;;;;5120287;28;20208;-62
2022/08/28 08:42:02;;;;;;;10.83;7.33;;;;;;;;;;5119876;28;20260;-62
2022/08/28 08:44:33;;;;;;;7.80;6.93;;;;;;;;;;5119997;28;20798;-63
2022/08/28 08:47:07;;;;;;;8.77;6.60;;;;;;;;;;5120162;28;20207;-62
2022/08/28 08:49:43;;;;;;;9.00;7.10;;;;;;;;;;5119780;28;20238;-62
2022/08/28 08:52:29;;;;;;;8.83;7.27;;;;;;;;;;5119889;28;20234;-62
2022/08/28 08:55:06;;;;;;;9.73;7.07;;;;;;;;;;5119948;28;20230;-63
2022/08/28 08:57:34;;;;;;;9.07;7.27;;;;;;;;;;5119688;28;20203;-63
2022/08/28 09:00:06;;;;;;;10.63;6.63;;;;;;;;;;5119861;28;20227;-63
2022/08/28 09:02:43;;;;;;;7.60;6.73;;;;;;;;;;5119649;28;20218;-63
2022/08/28 09:05:13;;;;;;;9.50;7.10;;;;;;;;;;5119481;28;20239;-62
2022/08/28 09:07:44;;;;;;;7.50;6.80;;;;;;;;;;5119187;28;20219;-63
2022/08/28 09:10:18;;;;;;;8.17;6.40;;;;;;;;;;5119643;28;20294;-63
2022/08/28 09:12:51;;;;;;;10.40;6.87;;;;;;;;;;5119481;28;20601;-62
2022/08/28 09:15:26;;;;;;;9.33;6.97;;;;;;;;;;5120420;28;20207;-62
2022/08/28 09:17:55;;;;;;;9.67;6.50;;;;;;;;;;5112298;28;20229;-62
2022/08/28 09:20:26;;;;;;;7.80;7.00;;;;;;;;;;5099069;28;20238;-62
2022/08/28 09:23:00;;;;;;;8.33;6.40;;;;;;;;;;5106862;28;20212;-62
2022/08/28 09:25:48;;;;;;;7.73;5.97;;;;;;;;;;5102328;28;20253;-62
2022/08/28 09:28:19;;;;;;;9.63;6.70;;;;;;;;;;5098729;28;20632;-62
2022/08/28 09:30:54;;;;;;;7.70;6.43;;;;;;;;;;5098569;28;20665;-62
2022/08/28 09:33:29;;;;;;;6.80;6.10;;;;;;;;;;5098299;28;20232;-62
2022/08/28 09:35:57;;;;;;;7.27;5.93;;;;;;;;;;5098853;28;20215;-62
2022/08/28 09:38:27;;;;;;;6.80;6.07;;;;;;;;;;5098619;28;20245;-62
2022/08/28 09:43:51;;;;;;;7.03;6.33;;;;;;;;;;5098261;28;20311;-62
2022/08/28 09:46:24;;;;;;;7.27;6.53;;;;;;;;;;5098418;28;20217;-62
2022/08/28 09:48:52;;;;;;;7.00;6.30;;;;;;;;;;5105158;28;20623;-62
2022/08/28 09:51:28;;;;;;;8.20;7.07;;;;;;;;;;5118364;28;20657;-62
2022/08/28 09:53:59;;;;;;;8.87;7.17;;;;;;;;;;5118552;28;20280;-62
2022/08/28 09:56:28;;;;;;;9.00;7.00;;;;;;;;;;5118477;28;20279;-62
2022/08/28 09:58:58;;;;;;;7.37;6.67;;;;;;;;;;5118437;28;20239;-62
2022/08/28 10:01:31;;;;;;;7.47;6.43;;;;;;;;;;5118403;28;20671;-62
2022/08/28 10:04:06;;;;;;;7.43;6.50;;;;;;;;;;5118140;28;20629;-62
2022/08/28 10:06:35;;;;;;;7.57;6.27;;;;;;;;;;5118420;28;20622;-62
2022/08/28 10:09:10;;;;;;;7.83;6.30;;;;;;;;;;5118449;28;20264;-62
2022/08/28 10:11:41;;;;;;;8.83;6.20;;;;;;;;;;5118324;28;20305;-62
2022/08/28 10:14:15;;;;;;;6.00;5.50;;;;;;;;;;5118105;28;20232;-62
2022/08/28 10:16:48;;;;;;;6.33;5.73;;;;;;;;;;5118362;28;20252;-62
2022/08/28 10:19:23;;;;;;;6.93;5.90;;;;;;;;;;5100686;28;20242;-62
2022/08/28 10:21:54;;;;;;;8.43;5.60;;;;;;;;;;5098065;28;20211;-62
2022/08/28 10:24:36;;;;;;;7.17;6.47;;;;;;;;;;5112138;28;20229;-62
2022/08/28 10:27:09;;;;;;;8.50;5.83;;;;;;;;;;5118070;28;20246;-62
2022/08/28 10:29:46;;;;;;;8.50;6.53;;;;;;;;;;5118632;28;20201;-62
2022/08/28 10:32:34;;;;;;;6.50;5.80;;;;;;;;;;5118050;28;20334;-62
2022/08/28 10:35:05;;;;;;;9.00;6.10;;;;;;;;;;5118247;28;20231;-61
2022/08/28 10:37:40;;;;;;;6.67;6.00;;;;;;;;;;5118328;28;20313;-62
2022/08/28 10:40:10;;;;;;;7.63;5.80;;;;;;;;;;5118208;28;20207;-62
2022/08/28 10:42:39;;;;;;;5.43;4.93;;;;;;;;;;5118165;28;20237;-62
2022/08/28 10:45:10;;;;;;;5.47;4.97;;;;;;;;;;5117835;28;20608;-62
2022/08/28 10:47:42;;;;;;;8.17;5.20;;;;;;;;;;5118028;28;20244;-62
2022/08/28 10:50:12;;;;;;;8.43;5.80;;;;;;;;;;5118256;28;20246;-62
2022/08/28 10:52:41;;;;;;;5.90;5.30;;;;;;;;;;5117906;28;20428;-62
2022/08/28 10:55:11;;;;;;;6.57;5.87;;;;;;;;;;5118029;28;20306;-62
2022/08/28 10:57:41;;;;;;;6.07;5.47;;;;;;;;;;5117795;28;20749;-62
2022/08/28 11:00:11;;;;;;;7.23;5.70;;;;;;;;;;5118119;28;20210;-62
2022/08/28 11:02:42;;;;;;;8.20;5.67;;;;;;;;;;5117416;28;20279;-62
2022/08/28 11:05:10;;;;;;;9.60;6.13;;;;;;;;;;5118004;28;20263;-62
2022/08/28 11:07:40;;;;;;;7.47;5.47;;;;;;;;;;5117726;28;20209;-62
2022/08/28 11:10:19;;;;;;;6.65;5.72;;;;;;;;;;5118030;28;20236;-62
2022/08/28 11:12:48;;;;;;;6.95;5.18;;;;;;;;;;5117802;28;20228;-62
2022/08/28 11:15:35;;;;;;;6.60;5.65;;;;;;;;;;5118238;28;20206;-62
2022/08/28 11:18:25;;;;;;;6.10;5.50;;;;;;;;;;5108717;28;20207;-62
2022/08/28 11:20:56;;;;;;;6.45;5.85;;;;;;;;;;5097065;28;20611;-62
2022/08/28 11:23:37;;;;;;;6.33;5.73;;;;;;;;;;5103583;28;20228;-62
2022/08/28 11:26:07;;;;;;;6.73;5.83;;;;;;;;;;5103585;28;20666;-62
2022/08/28 11:28:43;;;;;;;7.27;6.23;;;;;;;;;;5117461;28;20554;-62
2022/08/28 11:31:26;;;;;;;6.30;5.73;;;;;;;;;;5121499;28;20227;-62
2022/08/28 11:33:59;;;;;;;10.07;7.23;;;;;;;;;;5119760;27;20227;-62
2022/08/28 11:36:46;;;;;;;9.93;6.27;;;;;;;;;;5121841;28;20235;-62
2022/08/28 11:39:21;;;;;;;6.67;5.83;;;;;;;;;;5121169;28;20235;-62
2022/08/28 11:42:07;;;;;;;6.43;5.83;;;;;;;;;;5121052;28;20225;-62
2022/08/28 11:44:41;;;;;;;8.03;6.00;;;;;;;;;;5121019;28;20272;-62
2022/08/28 11:47:27;;;;;;;6.27;5.67;;;;;;;;;;5120997;28;20249;-62
2022/08/28 11:50:02;;;;;;;6.47;5.60;;;;;;;;;;5121117;28;20246;-62
2022/08/28 11:52:38;;;;;;;5.63;5.13;;;;;;;;;;5120725;27;20726;-62
2022/08/28 11:55:12;;;;;;;7.00;6.30;;;;;;;;;;5121111;28;20265;-62
2022/08/28 11:57:50;;;;;;;7.78;5.80;;;;;;;;;;5120790;28;20207;-62
2022/08/28 12:00:22;;;;;;;6.82;5.57;;;;;;;;;;5121154;28;20242;-62
2022/08/28 12:02:53;;;;;;;7.00;5.55;;;;;;;;;;5120323;28;20232;-62
2022/08/28 12:05:41;;;;;;;7.37;5.70;;;;;;;;;;5121013;28;20206;-62
2022/08/28 12:08:12;;;;;;;6.07;5.47;;;;;;;;;;5120613;28;20242;-62
2022/08/28 12:10:57;;;;;;;7.37;5.60;;;;;;;;;;5120555;28;20208;-62
2022/08/28 12:13:45;;;;;;;6.97;5.77;;;;;;;;;;5120679;28;20263;-62
2022/08/28 12:16:14;;;;;;;7.77;5.77;;;;;;;;;;5120573;28;20245;-62
2022/08/28 12:19:02;;;;;;;6.03;5.50;;;;;;;;;;5107703;28;20201;-62
2022/08/28 12:21:35;;;;;;;6.83;5.50;;;;;;;;;;5099928;28;20206;-62
2022/08/28 12:24:04;;;;;;;5.73;5.23;;;;;;;;;;5111673;28;20771;-62
2022/08/28 12:26:38;;;;;;;5.77;4.93;;;;;;;;;;5120359;28;20210;-62
2022/08/28 12:29:08;;;;;;;9.20;5.70;;;;;;;;;;5120196;27;20302;-62
2022/08/28 12:32:12;;;;;;;5.63;5.13;;;;;;;;;;5120136;27;20238;-61
2022/08/28 12:34:45;;;;;;;4.93;4.53;;;;;;;;;;5120143;28;20284;-62
2022/08/28 12:37:33;;;;;;;7.07;5.07;;;;;;;;;;5119980;28;20635;-62
2022/08/28 12:40:21;;;;;;;5.73;4.70;;;;;;;;;;5119553;28;20234;-62
2022/08/28 12:42:52;;;;;;;6.07;4.70;;;;;;;;;;5119685;28;20261;-62
2022/08/28 12:45:24;;;;;;;5.00;4.00;;;;;;;;;;5119912;28;20259;-62
2022/08/28 12:47:53;;;;;;;5.30;4.85;;;;;;;;;;5119992;28;20212;-62
2022/08/28 12:50:26;;;;;;;5.35;4.85;;;;;;;;;;5119786;28;20236;-62
2022/08/28 12:52:56;;;;;;;4.70;4.30;;;;;;;;;;5119566;28;20325;-62
2022/08/28 12:55:25;;;;;;;5.07;4.68;;;;;;;;;;5120289;28;20202;-62
2022/08/28 12:57:53;;;;;;;4.88;4.43;;;;;;;;;;5119889;28;20215;-62
2022/08/28 13:00:23;;;;;;;6.15;4.75;;;;;;;;;;5119947;28;20264;-62
2022/08/28 13:02:53;;;;;;;6.22;4.88;;;;;;;;;;5119397;28;20202;-62
2022/08/28 13:05:23;;;;;;;5.40;4.70;;;;;;;;;;5119574;28;20699;-62
2022/08/28 13:07:53;;;;;;;4.75;4.28;;;;;;;;;;5119674;28;20238;-62
2022/08/28 13:10:23;;;;;;;4.32;3.92;;;;;;;;;;5119587;28;20216;-62
2022/08/28 13:12:54;;;;;;;4.88;4.38;;;;;;;;;;5119060;28;20725;-62
2022/08/28 13:15:47;;;;;;;4.40;4.00;;;;;;;;;;5119421;28;20210;-62
2022/08/28 13:18:34;;;;;;;4.72;4.25;;;;;;;;;;5107386;28;20685;-62
2022/08/28 13:21:13;;;;;;;5.78;4.20;;;;;;;;;;5119089;28;20290;-62
2022/08/28 13:23:41;;;;;;;6.13;4.13;;;;;;;;;;5119098;28;20332;-62
2022/08/28 13:26:10;;;;;;;7.07;4.38;;;;;;;;;;5098898;28;20246;-62
2022/08/28 13:28:41;;;;;;;5.07;4.57;;;;;;;;;;5098613;28;20212;-62
2022/08/28 13:31:20;;;;;;;5.85;4.70;;;;;;;;;;5098948;28;20239;-62
2022/08/28 13:34:01;;;;;;;6.97;4.22;;;;;;;;;;5098378;28;20232;-62
2022/08/28 13:36:37;;;;;;;4.63;4.22;;;;;;;;;;5098767;28;20239;-62
2022/08/28 13:39:05;;;;;;;4.32;3.92;;;;;;;;;;5098433;28;20272;-62
2022/08/28 13:41:33;;;;;;;4.93;4.20;;;;;;;;;;5098136;28;20263;-62
2022/08/28 13:44:03;;;;;;;4.13;3.83;;;;;;;;;;5098211;28;20223;-62
2022/08/28 13:46:31;;;;;;;4.40;4.00;;;;;;;;;;5098310;28;20236;-62
2022/08/28 13:48:59;;;;;;;4.70;4.10;;;;;;;;;;5098354;28;20212;-62
2022/08/28 13:51:27;;;;;;;4.30;3.90;;;;;;;;;;5098004;28;20240;-62
2022/08/28 13:53:56;;;;;;;4.95;3.95;;;;;;;;;;5098449;28;20235;-61
2022/08/28 13:56:27;;;;;;;5.40;4.03;;;;;;;;;;5098207;28;20208;-61
2022/08/28 13:58:55;;;;;;;4.25;3.88;;;;;;;;;;5098422;28;20265;-61
2022/08/28 14:03:34;;;;;;;4.40;4.00;;;;;;;;;;5097974;28;20204;-62
2022/08/28 14:04:14;;;;;;;4.20;3.80;;;;;;;;;;5097963;28;20220;-62
2022/08/28 14:06:43;;;;;;;4.47;3.88;;;;;;;;;;5098135;28;20265;-62
2022/08/28 14:09:14;;;;;;;4.47;3.97;;;;;;;;;;5097947;28;20297;-63
2022/08/28 14:11:44;;;;;;;4.43;4.07;;;;;;;;;;5098013;28;20204;-62
2022/08/28 14:14:12;;;;;;;5.25;3.83;;;;;;;;;;5097880;28;20229;-63
2022/08/28 14:16:43;;;;;;;3.90;3.58;;;;;;;;;;5104922;28;20253;-63
2022/08/28 14:19:12;;;;;;;3.70;3.40;;;;;;;;;;5100941;28;20659;-61
2022/08/28 14:21:40;;;;;;;4.22;3.60;;;;;;;;;;5097749;28;20240;-62
2022/08/28 14:24:08;;;;;;;4.07;3.67;;;;;;;;;;5110113;28;20273;-62
2022/08/28 14:26:36;;;;;;;5.47;3.88;;;;;;;;;;5118011;28;20246;-61
2022/08/28 14:29:06;;;;;;;4.57;3.72;;;;;;;;;;5118020;28;20637;-61
2022/08/28 14:31:35;;;;;;;4.88;3.60;;;;;;;;;;5117993;28;20667;-63
2022/08/28 14:34:05;;;;;;;3.70;3.40;;;;;;;;;;5117737;28;20238;-63
2022/08/28 14:36:33;;;;;;;4.15;3.85;;;;;;;;;;5118269;28;20240;-63
2022/08/28 14:39:01;;;;;;;4.75;4.35;;;;;;;;;;5117940;28;20231;-63
2022/08/28 14:41:33;;;;;;;4.18;3.78;;;;;;;;;;5117681;28;20255;-61
2022/08/28 14:44:01;;;;;;;7.47;3.95;;;;;;;;;;5117769;28;20624;-61
2022/08/28 14:46:31;;;;;;;3.85;3.55;;;;;;;;;;5118138;28;20230;-61
2022/08/28 14:49:01;;;;;;;4.38;3.72;;;;;;;;;;5117887;28;20209;-61
2022/08/28 14:51:31;;;;;;;4.50;4.10;;;;;;;;;;5117891;28;20234;-62
2022/08/28 14:54:00;;;;;;;3.65;3.35;;;;;;;;;;5117784;28;20251;-62
2022/08/28 14:56:28;;;;;;;4.25;3.85;;;;;;;;;;5117772;28;20233;-61
2022/08/28 14:58:59;;;;;;;3.75;3.45;;;;;;;;;;5118182;28;20208;-62
2022/08/28 15:01:27;;;;;;;4.18;3.67;;;;;;;;;;5118068;28;20200;-62
2022/08/28 15:04:09;;;;;;;4.10;3.80;;;;;;;;;;5118126;28;20306;-62
2022/08/28 15:06:41;;;;;;;6.22;3.83;;;;;;;;;;5122200;28;20207;-61
2022/08/28 15:09:09;;;;;;;3.80;3.45;;;;;;;;;;5122084;28;20211;-61
2022/08/28 15:11:38;;;;;;;4.25;3.85;;;;;;;;;;5121782;28;20583;-63